sensor_id;sensor_type;location;lat;lon;timestamp;pressure;altitude;pressure_sealevel;temperature;humidity
2192;BME280;1102;49.718;11.902;2023-03-19T00:00:29;96019.47;;;3.67;100.00
2192;BME280;1102;49.718;11.902;2023-03-19T00:02:56;96024.09;;;3.56;100.00
2192;BME280;1102;49.718;11.902;2023-03-19T00:05:23;96044.84;;;3.80;100.00
2192;BME280;1102;49.718;11.902;2023-03-19T00:07:50;96021.97;;;3.58;100.00
2192;BME280;1102;49.718;11.902;2023-03-19T00:10:17;95989.72;;;3.35;100.00
2192;BME280;1102;49.718;11.902;2023-03-19T00:12:44;96038.25;;;3.82;100.00
2192;BME280;1102;49.718;11.902;2023-03-19T00:15:11;96025.66;;;3.71;100.00
2192;BME280;1102;49.718;11.902;2023-03-19T00:17:41;96050.84;;;3.94;100.00
2192;BME280;1102;49.718;11.902;2023-03-19T00:20:10;95980.78;;;3.22;100.00
2192;BME280;1102;49.718;11.902;2023-03-19T00:22:38;96051.41;;;3.64;100.00
2192;BME280;1102;49.718;11.902;2023-03-19T00:25:06;96064.00;;;3.62;100.00
2192;BME280;1102;49.718;11.902;2023-03-19T00:27:34;96029.72;;;3.49;100.00
2192;BME280;1102;49.718;11.902;2023-03-19T00:30:06;96031.34;;;3.59;100.00
2192;BME280;1102;49.718;11.902;2023-03-19T00:32:33;96000.06;;;3.40;100.00
2192;BME280;1102;49.718;11.902;2023-03-19T00:35:01;96017.97;;;3.47;100.00
2192;BME280;1102;49.718;11.902;2023-03-19T00:37:29;96018.06;;;3.42;100.00
2192;BME280;1102;49.718;11.902;2023-03-19T00:39:56;96040.22;;;3.44;100.00
2192;BME280;1102;49.718;11.902;2023-03-19T00:42:22;96046.53;;;3.57;100.00
2192;BME280;1102;49.718;11.902;2023-03-19T00:44:49;96049.28;;;3.66;100.00
2192;BME280;1102;49.718;11.902;2023-03-19T00:47:16;96049.78;;;3.68;100.00
2192;BME280;1102;49.718;11.902;2023-03-19T00:49:43;96028.81;;;3.40;100.00
2192;BME280;1102;49.718;11.902;2023-03-19T00:52:10;96029.38;;;3.37;100.00
2192;BME280;1102;49.718;11.902;2023-03-19T00:54:38;96054.09;;;3.59;100.00
2192;BME280;1102;49.718;11.902;2023-03-19T00:57:06;96060.81;;;3.65;100.00
2192;BME280;1102;49.718;11.902;2023-03-19T00:59:33;96063.13;;;3.66;100.00
2192;BME280;1102;49.718;11.902;2023-03-19T01:02:01;96065.19;;;3.83;100.00
2192;BME280;1102;49.718;11.902;2023-03-19T01:04:28;96066.72;;;3.70;100.00
2192;BME280;1102;49.718;11.902;2023-03-19T01:06:54;96037.22;;;3.37;100.00
2192;BME280;1102;49.718;11.902;2023-03-19T01:09:21;96037.81;;;3.34;100.00
2192;BME280;1102;49.718;11.902;2023-03-19T01:11:48;96048.34;;;3.43;100.00
2192;BME280;1102;49.718;11.902;2023-03-19T01:14:15;96025.06;;;3.14;100.00
2192;BME280;1102;49.718;11.902;2023-03-19T01:16:42;95995.28;;;2.82;100.00
2192;BME280;1102;49.718;11.902;2023-03-19T01:19:09;95998.78;;;2.91;100.00
2192;BME280;1102;49.718;11.902;2023-03-19T01:21:36;96040.00;;;3.27;100.00
2192;BME280;1102;49.718;11.902;2023-03-19T01:24:03;96042.78;;;3.17;100.00
2192;BME280;1102;49.718;11.902;2023-03-19T01:26:30;96058.88;;;3.24;100.00
2192;BME280;1102;49.718;11.902;2023-03-19T01:29:09;96011.91;;;2.86;100.00
2192;BME280;1102;49.718;11.902;2023-03-19T01:31:36;96023.81;;;2.92;100.00
2192;BME280;1102;49.718;11.902;2023-03-19T01:34:22;96058.75;;;2.96;100.00
2192;BME280;1102;49.718;11.902;2023-03-19T01:36:53;96013.69;;;2.53;100.00
2192;BME280;1102;49.718;11.902;2023-03-19T01:39:27;96028.78;;;2.56;100.00
2192;BME280;1102;49.718;11.902;2023-03-19T01:41:54;96031.19;;;2.72;100.00
2192;BME280;1102;49.718;11.902;2023-03-19T01:44:34;96054.50;;;3.01;100.00
2192;BME280;1102;49.718;11.902;2023-03-19T01:47:29;96020.84;;;2.80;100.00
2192;BME280;1102;49.718;11.902;2023-03-19T01:50:28;96059.09;;;3.09;100.00
2192;BME280;1102;49.718;11.902;2023-03-19T01:53:15;96062.06;;;3.02;100.00
2192;BME280;1102;49.718;11.902;2023-03-19T01:55:47;96046.09;;;3.04;100.00
2192;BME280;1102;49.718;11.902;2023-03-19T01:58:31;96052.47;;;2.79;100.00
2192;BME280;1102;49.718;11.902;2023-03-19T02:01:18;96035.41;;;2.86;100.00
2192;BME280;1102;49.718;11.902;2023-03-19T02:03:50;96004.94;;;2.63;100.00
2192;BME280;1102;49.718;11.902;2023-03-19T02:06:26;96029.50;;;2.81;100.00
2192;BME280;1102;49.718;11.902;2023-03-19T02:08:56;96037.88;;;2.96;100.00
2192;BME280;1102;49.718;11.902;2023-03-19T02:11:24;96048.44;;;3.05;100.00
2192;BME280;1102;49.718;11.902;2023-03-19T02:13:51;96052.88;;;3.05;100.00
2192;BME280;1102;49.718;11.902;2023-03-19T02:16:18;95996.97;;;2.73;100.00
2192;BME280;1102;49.718;11.902;2023-03-19T02:18:46;96019.38;;;2.93;100.00
2192;BME280;1102;49.718;11.902;2023-03-19T02:21:17;96046.34;;;3.07;100.00
2192;BME280;1102;49.718;11.902;2023-03-19T02:24:08;96044.97;;;3.10;100.00
2192;BME280;1102;49.718;11.902;2023-03-19T02:26:48;96044.13;;;3.14;100.00
2192;BME280;1102;49.718;11.902;2023-03-19T02:29:16;96036.25;;;2.82;100.00
2192;BME280;1102;49.718;11.902;2023-03-19T02:31:44;96005.72;;;2.45;100.00
2192;BME280;1102;49.718;11.902;2023-03-19T02:36:40;96044.88;;;2.82;100.00
2192;BME280;1102;49.718;11.902;2023-03-19T02:39:22;96046.19;;;2.80;100.00
2192;BME280;1102;49.718;11.902;2023-03-19T02:41:52;96017.66;;;2.70;100.00
2192;BME280;1102;49.718;11.902;2023-03-19T02:44:22;96005.91;;;2.67;100.00
2192;BME280;1102;49.718;11.902;2023-03-19T02:46:49;96029.16;;;2.69;100.00
2192;BME280;1102;49.718;11.902;2023-03-19T02:49:17;96027.06;;;2.65;100.00
2192;BME280;1102;49.718;11.902;2023-03-19T02:51:44;96008.88;;;2.60;100.00
2192;BME280;1102;49.718;11.902;2023-03-19T02:54:11;96034.13;;;2.65;100.00
2192;BME280;1102;49.718;11.902;2023-03-19T02:56:38;96055.56;;;2.62;100.00
2192;BME280;1102;49.718;11.902;2023-03-19T02:59:04;96001.63;;;2.38;100.00
2192;BME280;1102;49.718;11.902;2023-03-19T03:01:31;96019.81;;;2.44;100.00
2192;BME280;1102;49.718;11.902;2023-03-19T03:03:58;96062.72;;;2.75;100.00
2192;BME280;1102;49.718;11.902;2023-03-19T03:06:25;96037.44;;;2.52;100.00
2192;BME280;1102;49.718;11.902;2023-03-19T03:08:52;96011.84;;;2.16;100.00
2192;BME280;1102;49.718;11.902;2023-03-19T03:11:18;96003.00;;;2.12;100.00
2192;BME280;1102;49.718;11.902;2023-03-19T03:13:45;96033.84;;;2.29;100.00
2192;BME280;1102;49.718;11.902;2023-03-19T03:16:12;95987.22;;;2.03;100.00
2192;BME280;1102;49.718;11.902;2023-03-19T03:18:40;96011.75;;;2.21;100.00
2192;BME280;1102;49.718;11.902;2023-03-19T03:21:07;96026.09;;;2.43;100.00
2192;BME280;1102;49.718;11.902;2023-03-19T03:23:35;96041.13;;;2.51;100.00
2192;BME280;1102;49.718;11.902;2023-03-19T03:26:02;96029.69;;;2.47;100.00
2192;BME280;1102;49.718;11.902;2023-03-19T03:28:29;96054.19;;;2.70;100.00
2192;BME280;1102;49.718;11.902;2023-03-19T03:30:59;96053.31;;;2.74;100.00
2192;BME280;1102;49.718;11.902;2023-03-19T03:33:27;96024.63;;;2.55;100.00
2192;BME280;1102;49.718;11.902;2023-03-19T03:35:54;96033.22;;;2.56;100.00
2192;BME280;1102;49.718;11.902;2023-03-19T03:38:22;96058.41;;;2.65;100.00
2192;BME280;1102;49.718;11.902;2023-03-19T03:40:50;96067.59;;;2.82;100.00
2192;BME280;1102;49.718;11.902;2023-03-19T03:43:20;96071.81;;;2.59;100.00
2192;BME280;1102;49.718;11.902;2023-03-19T03:45:47;96050.41;;;2.38;100.00
2192;BME280;1102;49.718;11.902;2023-03-19T03:48:15;96049.22;;;2.30;100.00
2192;BME280;1102;49.718;11.902;2023-03-19T03:50:42;96059.56;;;2.35;100.00
2192;BME280;1102;49.718;11.902;2023-03-19T03:53:14;96040.63;;;2.30;100.00
2192;BME280;1102;49.718;11.902;2023-03-19T03:55:41;96059.53;;;2.41;100.00
2192;BME280;1102;49.718;11.902;2023-03-19T03:58:08;96078.84;;;2.58;100.00
2192;BME280;1102;49.718;11.902;2023-03-19T04:00:35;96032.06;;;2.24;100.00
2192;BME280;1102;49.718;11.902;2023-03-19T04:03:02;96088.44;;;2.63;100.00
2192;BME280;1102;49.718;11.902;2023-03-19T04:05:29;96065.25;;;2.43;100.00
2192;BME280;1102;49.718;11.902;2023-03-19T04:07:57;96058.47;;;2.42;100.00
2192;BME280;1102;49.718;11.902;2023-03-19T04:10:24;96064.47;;;2.42;100.00
2192;BME280;1102;49.718;11.902;2023-03-19T04:12:51;96035.69;;;2.28;100.00
2192;BME280;1102;49.718;11.902;2023-03-19T04:15:18;96089.78;;;2.60;100.00
2192;BME280;1102;49.718;11.902;2023-03-19T04:17:46;96037.84;;;2.21;100.00
2192;BME280;1102;49.718;11.902;2023-03-19T04:20:14;96080.44;;;2.35;100.00
2192;BME280;1102;49.718;11.902;2023-03-19T04:22:44;96087.38;;;2.45;100.00
2192;BME280;1102;49.718;11.902;2023-03-19T04:25:11;96087.69;;;2.38;100.00
2192;BME280;1102;49.718;11.902;2023-03-19T04:27:38;96041.13;;;2.08;100.00
2192;BME280;1102;49.718;11.902;2023-03-19T04:30:07;96059.47;;;2.22;100.00
2192;BME280;1102;49.718;11.902;2023-03-19T04:32:36;96077.50;;;2.42;100.00
2192;BME280;1102;49.718;11.902;2023-03-19T04:35:03;96087.28;;;2.50;100.00
2192;BME280;1102;49.718;11.902;2023-03-19T04:37:30;96089.34;;;2.53;100.00
2192;BME280;1102;49.718;11.902;2023-03-19T04:39:56;96088.53;;;2.58;100.00
2192;BME280;1102;49.718;11.902;2023-03-19T04:42:23;96038.72;;;2.12;100.00
2192;BME280;1102;49.718;11.902;2023-03-19T04:45:03;96044.28;;;2.05;100.00
2192;BME280;1102;49.718;11.902;2023-03-19T04:47:30;96051.75;;;2.35;100.00
2192;BME280;1102;49.718;11.902;2023-03-19T04:49:59;96065.25;;;2.43;100.00
2192;BME280;1102;49.718;11.902;2023-03-19T04:52:26;96089.56;;;2.57;100.00
2192;BME280;1102;49.718;11.902;2023-03-19T04:54:54;96056.91;;;2.41;100.00
2192;BME280;1102;49.718;11.902;2023-03-19T04:57:21;96033.59;;;2.25;100.00
2192;BME280;1102;49.718;11.902;2023-03-19T04:59:50;96095.00;;;2.60;100.00
2192;BME280;1102;49.718;11.902;2023-03-19T05:02:19;96071.81;;;2.59;100.00
2192;BME280;1102;49.718;11.902;2023-03-19T05:04:47;96052.19;;;2.43;100.00
2192;BME280;1102;49.718;11.902;2023-03-19T05:07:14;96078.13;;;2.53;100.00
2192;BME280;1102;49.718;11.902;2023-03-19T05:09:42;96084.00;;;2.63;100.00
2192;BME280;1102;49.718;11.902;2023-03-19T05:12:10;96053.94;;;2.28;100.00
2192;BME280;1102;49.718;11.902;2023-03-19T05:14:43;96042.88;;;2.13;100.00
2192;BME280;1102;49.718;11.902;2023-03-19T05:17:17;95998.47;;;1.99;100.00
2192;BME280;1102;49.718;11.902;2023-03-19T05:19:50;96041.06;;;2.13;100.00
2192;BME280;1102;49.718;11.902;2023-03-19T05:22:21;96053.75;;;2.20;100.00
2192;BME280;1102;49.718;11.902;2023-03-19T05:24:50;96057.03;;;2.30;100.00
2192;BME280;1102;49.718;11.902;2023-03-19T05:27:17;96073.88;;;2.38;100.00
2192;BME280;1102;49.718;11.902;2023-03-19T05:30:10;96071.22;;;2.62;100.00
2192;BME280;1102;49.718;11.902;2023-03-19T05:32:50;96111.81;;;2.92;100.00
2192;BME280;1102;49.718;11.902;2023-03-19T05:35:27;96082.25;;;2.59;100.00
2192;BME280;1102;49.718;11.902;2023-03-19T05:37:55;96071.44;;;2.47;100.00
2192;BME280;1102;49.718;11.902;2023-03-19T05:40:22;96112.38;;;2.70;100.00
2192;BME280;1102;49.718;11.902;2023-03-19T05:42:50;96070.00;;;2.35;100.00
2192;BME280;1102;49.718;11.902;2023-03-19T05:45:20;96115.81;;;2.65;100.00
2192;BME280;1102;49.718;11.902;2023-03-19T05:47:50;96088.75;;;2.37;100.00
2192;BME280;1102;49.718;11.902;2023-03-19T05:50:18;96116.00;;;2.50;100.00
2192;BME280;1102;49.718;11.902;2023-03-19T05:53:12;96113.94;;;2.71;100.00
2192;BME280;1102;49.718;11.902;2023-03-19T05:55:46;96092.59;;;2.64;100.00
2192;BME280;1102;49.718;11.902;2023-03-19T05:58:14;96131.22;;;2.86;100.00
2192;BME280;1102;49.718;11.902;2023-03-19T06:00:41;96114.34;;;2.78;100.00
2192;BME280;1102;49.718;11.902;2023-03-19T06:03:08;96104.31;;;2.66;100.00
2192;BME280;1102;49.718;11.902;2023-03-19T06:05:50;96132.13;;;2.76;100.00
2192;BME280;1102;49.718;11.902;2023-03-19T06:08:28;96098.03;;;2.49;100.00
2192;BME280;1102;49.718;11.902;2023-03-19T06:11:01;96110.22;;;2.53;100.00
2192;BME280;1102;49.718;11.902;2023-03-19T06:13:28;96138.25;;;2.66;100.00
2192;BME280;1102;49.718;11.902;2023-03-19T06:15:57;96113.94;;;2.47;100.00
2192;BME280;1102;49.718;11.902;2023-03-19T06:18:29;96150.59;;;2.80;100.00
2192;BME280;1102;49.718;11.902;2023-03-19T06:20:57;96128.69;;;2.81;100.00
2192;BME280;1102;49.718;11.902;2023-03-19T06:23:24;96106.22;;;2.61;100.00
2192;BME280;1102;49.718;11.902;2023-03-19T06:25:51;96162.72;;;2.94;100.00
2192;BME280;1102;49.718;11.902;2023-03-19T06:28:20;96158.09;;;2.67;100.00
2192;BME280;1102;49.718;11.902;2023-03-19T06:30:47;96124.59;;;2.51;100.00
2192;BME280;1102;49.718;11.902;2023-03-19T06:33:34;96115.34;;;2.40;100.00
2192;BME280;1102;49.718;11.902;2023-03-19T06:36:02;96164.00;;;2.73;100.00
2192;BME280;1102;49.718;11.902;2023-03-19T06:38:31;96121.94;;;2.56;100.00
2192;BME280;1102;49.718;11.902;2023-03-19T06:40:58;96154.50;;;2.82;100.00
2192;BME280;1102;49.718;11.902;2023-03-19T06:43:25;96145.25;;;2.90;100.00
2192;BME280;1102;49.718;11.902;2023-03-19T06:45:52;96177.31;;;3.14;100.00
2192;BME280;1102;49.718;11.902;2023-03-19T06:48:19;96162.63;;;3.00;100.00
2192;BME280;1102;49.718;11.902;2023-03-19T06:50:46;96120.63;;;2.77;100.00
2192;BME280;1102;49.718;11.902;2023-03-19T06:53:13;96181.00;;;3.32;100.00
2192;BME280;1102;49.718;11.902;2023-03-19T06:55:39;96160.09;;;3.32;100.00
2192;BME280;1102;49.718;11.902;2023-03-19T06:58:06;96159.75;;;3.39;100.00
2192;BME280;1102;49.718;11.902;2023-03-19T07:00:33;96171.16;;;3.43;100.00
2192;BME280;1102;49.718;11.902;2023-03-19T07:03:00;96161.38;;;3.35;100.00
2192;BME280;1102;49.718;11.902;2023-03-19T07:05:26;96199.69;;;3.58;100.00
2192;BME280;1102;49.718;11.902;2023-03-19T07:07:53;96169.53;;;3.47;100.00
2192;BME280;1102;49.718;11.902;2023-03-19T07:10:20;96208.31;;;3.77;100.00
2192;BME280;1102;49.718;11.902;2023-03-19T07:12:47;96184.16;;;3.67;100.00
2192;BME280;1102;49.718;11.902;2023-03-19T07:15:14;96201.00;;;3.93;100.00
2192;BME280;1102;49.718;11.902;2023-03-19T07:17:40;96172.47;;;3.78;100.00
2192;BME280;1102;49.718;11.902;2023-03-19T07:20:08;96227.72;;;4.23;100.00
2192;BME280;1102;49.718;11.902;2023-03-19T07:22:34;96193.34;;;3.97;100.00
2192;BME280;1102;49.718;11.902;2023-03-19T07:25:01;96209.78;;;4.16;100.00
2192;BME280;1102;49.718;11.902;2023-03-19T07:27:28;96237.09;;;4.24;100.00
2192;BME280;1102;49.718;11.902;2023-03-19T07:29:54;96201.69;;;3.99;100.00
2192;BME280;1102;49.718;11.902;2023-03-19T07:32:21;96233.81;;;4.18;100.00
2192;BME280;1102;49.718;11.902;2023-03-19T07:34:49;96235.59;;;4.36;100.00
2192;BME280;1102;49.718;11.902;2023-03-19T07:37:16;96221.91;;;4.26;100.00
2192;BME280;1102;49.718;11.902;2023-03-19T07:39:42;96215.00;;;4.16;100.00
2192;BME280;1102;49.718;11.902;2023-03-19T07:42:09;96247.44;;;4.48;100.00
2192;BME280;1102;49.718;11.902;2023-03-19T07:44:38;96244.97;;;4.84;100.00
2192;BME280;1102;49.718;11.902;2023-03-19T07:47:05;96222.06;;;4.89;100.00
2192;BME280;1102;49.718;11.902;2023-03-19T07:49:38;96219.91;;;5.05;100.00
2192;BME280;1102;49.718;11.902;2023-03-19T07:52:05;96259.09;;;5.38;100.00
2192;BME280;1102;49.718;11.902;2023-03-19T07:54:33;96254.03;;;5.41;100.00
2192;BME280;1102;49.718;11.902;2023-03-19T07:57:00;96258.59;;;5.49;100.00
2192;BME280;1102;49.718;11.902;2023-03-19T07:59:27;96241.81;;;5.37;100.00
2192;BME280;1102;49.718;11.902;2023-03-19T08:01:54;96235.00;;;5.49;100.00
2192;BME280;1102;49.718;11.902;2023-03-19T08:04:21;96247.00;;;5.64;100.00
2192;BME280;1102;49.718;11.902;2023-03-19T08:06:48;96225.63;;;5.57;100.00
2192;BME280;1102;49.718;11.902;2023-03-19T08:09:15;96246.03;;;5.82;100.00
2192;BME280;1102;49.718;11.902;2023-03-19T08:11:42;96259.91;;;5.97;100.00
2192;BME280;1102;49.718;11.902;2023-03-19T08:14:08;96250.97;;;5.98;100.00
2192;BME280;1102;49.718;11.902;2023-03-19T08:16:35;96213.16;;;5.76;100.00
2192;BME280;1102;49.718;11.902;2023-03-19T08:19:02;96284.16;;;6.16;100.00
2192;BME280;1102;49.718;11.902;2023-03-19T08:21:28;96265.00;;;5.93;100.00
2192;BME280;1102;49.718;11.902;2023-03-19T08:23:55;96273.66;;;6.16;100.00
2192;BME280;1102;49.718;11.902;2023-03-19T08:26:22;96287.97;;;6.32;100.00
2192;BME280;1102;49.718;11.902;2023-03-19T08:28:48;96270.53;;;6.14;100.00
2192;BME280;1102;49.718;11.902;2023-03-19T08:31:15;96279.41;;;6.27;100.00
2192;BME280;1102;49.718;11.902;2023-03-19T08:33:42;96259.44;;;6.17;100.00
2192;BME280;1102;49.718;11.902;2023-03-19T08:36:13;96289.56;;;6.42;100.00
2192;BME280;1102;49.718;11.902;2023-03-19T08:38:40;96260.25;;;6.26;100.00
2192;BME280;1102;49.718;11.902;2023-03-19T08:41:07;96286.28;;;6.67;100.00
2192;BME280;1102;49.718;11.902;2023-03-19T08:43:35;96260.47;;;6.61;100.00
2192;BME280;1102;49.718;11.902;2023-03-19T08:46:05;96263.34;;;6.81;100.00
2192;BME280;1102;49.718;11.902;2023-03-19T08:48:32;96262.84;;;7.10;100.00
2192;BME280;1102;49.718;11.902;2023-03-19T08:51:01;96304.25;;;7.53;100.00
2192;BME280;1102;49.718;11.902;2023-03-19T08:53:31;96298.50;;;7.51;100.00
2192;BME280;1102;49.718;11.902;2023-03-19T08:56:00;96289.03;;;7.33;100.00
2192;BME280;1102;49.718;11.902;2023-03-19T08:58:27;96274.78;;;7.34;100.00
2192;BME280;1102;49.718;11.902;2023-03-19T09:01:07;96310.72;;;7.38;100.00
2192;BME280;1102;49.718;11.902;2023-03-19T09:03:39;96300.31;;;7.33;100.00
2192;BME280;1102;49.718;11.902;2023-03-19T09:06:08;96315.69;;;7.49;100.00
2192;BME280;1102;49.718;11.902;2023-03-19T09:08:36;96305.44;;;7.38;100.00
2192;BME280;1102;49.718;11.902;2023-03-19T09:11:04;96241.94;;;7.05;100.00
2192;BME280;1102;49.718;11.902;2023-03-19T09:13:31;96296.91;;;7.33;100.00
2192;BME280;1102;49.718;11.902;2023-03-19T09:15:58;96323.25;;;7.41;100.00
2192;BME280;1102;49.718;11.902;2023-03-19T09:18:25;96290.22;;;7.09;100.00
2192;BME280;1102;49.718;11.902;2023-03-19T09:20:52;96243.69;;;6.79;100.00
2192;BME280;1102;49.718;11.902;2023-03-19T09:23:20;96290.03;;;7.06;100.00
2192;BME280;1102;49.718;11.902;2023-03-19T09:25:47;96266.84;;;7.08;100.00
2192;BME280;1102;49.718;11.902;2023-03-19T09:28:15;96288.25;;;7.24;100.00
2192;BME280;1102;49.718;11.902;2023-03-19T09:30:44;96309.13;;;7.29;100.00
2192;BME280;1102;49.718;11.902;2023-03-19T09:33:11;96295.78;;;7.17;100.00
2192;BME280;1102;49.718;11.902;2023-03-19T09:35:38;96323.50;;;7.31;100.00
2192;BME280;1102;49.718;11.902;2023-03-19T09:38:05;96310.38;;;7.31;100.00
2192;BME280;1102;49.718;11.902;2023-03-19T09:40:46;96281.41;;;7.14;100.00
2192;BME280;1102;49.718;11.902;2023-03-19T09:46:03;96279.69;;;7.18;100.00
2192;BME280;1102;49.718;11.902;2023-03-19T09:48:39;96305.91;;;7.40;100.00
2192;BME280;1102;49.718;11.902;2023-03-19T09:51:14;96280.53;;;7.36;100.00
2192;BME280;1102;49.718;11.902;2023-03-19T09:53:48;96280.53;;;7.45;100.00
2192;BME280;1102;49.718;11.902;2023-03-19T09:56:19;96316.66;;;7.70;100.00
2192;BME280;1102;49.718;11.902;2023-03-19T09:58:46;96265.56;;;7.62;100.00
2192;BME280;1102;49.718;11.902;2023-03-19T10:01:44;96302.13;;;8.07;100.00
2192;BME280;1102;49.718;11.902;2023-03-19T10:06:46;96236.75;;;8.00;100.00
2192;BME280;1102;49.718;11.902;2023-03-19T10:17:05;96325.00;;;8.84;100.00
2192;BME280;1102;49.718;11.902;2023-03-19T10:20:01;96329.13;;;8.94;100.00
2192;BME280;1102;49.718;11.902;2023-03-19T10:22:34;96302.22;;;8.71;100.00
2192;BME280;1102;49.718;11.902;2023-03-19T10:25:07;96324.13;;;9.10;100.00
2192;BME280;1102;49.718;11.902;2023-03-19T10:27:36;96327.59;;;8.93;100.00
2192;BME280;1102;49.718;11.902;2023-03-19T10:30:30;96335.94;;;9.04;100.00
2192;BME280;1102;49.718;11.902;2023-03-19T10:33:22;96292.28;;;8.77;100.00
2192;BME280;1102;49.718;11.902;2023-03-19T10:36:10;96332.84;;;8.93;100.00
2192;BME280;1102;49.718;11.902;2023-03-19T10:38:42;96303.97;;;8.58;100.00
2192;BME280;1102;49.718;11.902;2023-03-19T10:44:07;96335.19;;;8.95;100.00
2192;BME280;1102;49.718;11.902;2023-03-19T10:46:42;96283.34;;;8.52;100.00
2192;BME280;1102;49.718;11.902;2023-03-19T10:49:12;96299.28;;;8.64;100.00
2192;BME280;1102;49.718;11.902;2023-03-19T10:51:43;96345.25;;;9.01;100.00
2192;BME280;1102;49.718;11.902;2023-03-19T10:54:36;96337.47;;;9.05;100.00
2192;BME280;1102;49.718;11.902;2023-03-19T10:57:20;96311.69;;;8.72;100.00
2192;BME280;1102;49.718;11.902;2023-03-19T10:59:48;96253.00;;;8.37;100.00
2192;BME280;1102;49.718;11.902;2023-03-19T11:02:20;96308.91;;;8.60;100.00
2192;BME280;1102;49.718;11.902;2023-03-19T11:05:36;96318.81;;;8.63;100.00
2192;BME280;1102;49.718;11.902;2023-03-19T11:08:06;96339.44;;;8.70;100.00
2192;BME280;1102;49.718;11.902;2023-03-19T11:10:35;96316.50;;;8.53;100.00
2192;BME280;1102;49.718;11.902;2023-03-19T11:13:22;96314.38;;;8.29;100.00
2192;BME280;1102;49.718;11.902;2023-03-19T11:15:51;96288.03;;;8.12;100.00
2192;BME280;1102;49.718;11.902;2023-03-19T11:18:20;96294.66;;;8.26;100.00
2192;BME280;1102;49.718;11.902;2023-03-19T11:20:58;96313.75;;;8.41;100.00
2192;BME280;1102;49.718;11.902;2023-03-19T11:23:29;96337.44;;;8.58;100.00
2192;BME280;1102;49.718;11.902;2023-03-19T11:26:00;96326.09;;;8.66;100.00
2192;BME280;1102;49.718;11.902;2023-03-19T11:28:27;96324.09;;;8.63;100.00
2192;BME280;1102;49.718;11.902;2023-03-19T11:36:13;96308.59;;;8.53;100.00
2192;BME280;1102;49.718;11.902;2023-03-19T11:41:53;96306.59;;;8.33;100.00
2192;BME280;1102;49.718;11.902;2023-03-19T11:45:14;96296.38;;;8.14;100.00
2192;BME280;1102;49.718;11.902;2023-03-19T11:53:17;96289.41;;;8.09;100.00
2192;BME280;1102;49.718;11.902;2023-03-19T11:58:36;96280.44;;;8.10;100.00
2192;BME280;1102;49.718;11.902;2023-03-19T12:07:21;96228.09;;;8.00;100.00
2192;BME280;1102;49.718;11.902;2023-03-19T12:24:58;96256.09;;;8.48;100.00
2192;BME280;1102;49.718;11.902;2023-03-19T12:27:44;96274.66;;;8.69;100.00
2192;BME280;1102;49.718;11.902;2023-03-19T12:35:35;96251.69;;;8.69;100.00
2192;BME280;1102;49.718;11.902;2023-03-19T12:38:11;96232.38;;;8.56;100.00
2192;BME280;1102;49.718;11.902;2023-03-19T12:40:53;96258.00;;;8.85;100.00
2192;BME280;1102;49.718;11.902;2023-03-19T12:43:28;96227.59;;;8.79;100.00
2192;BME280;1102;49.718;11.902;2023-03-19T12:46:04;96260.28;;;8.96;100.00
2192;BME280;1102;49.718;11.902;2023-03-19T12:48:45;96247.38;;;9.03;100.00
2192;BME280;1102;49.718;11.902;2023-03-19T12:51:18;96212.28;;;8.81;100.00
2192;BME280;1102;49.718;11.902;2023-03-19T12:53:49;96240.09;;;9.29;100.00
2192;BME280;1102;49.718;11.902;2023-03-19T12:59:00;96273.41;;;9.63;100.00
2192;BME280;1102;49.718;11.902;2023-03-19T13:01:34;96192.47;;;9.26;100.00
2192;BME280;1102;49.718;11.902;2023-03-19T13:04:23;96275.69;;;10.15;100.00
2192;BME280;1102;49.718;11.902;2023-03-19T13:07:00;96283.78;;;10.10;100.00
2192;BME280;1102;49.718;11.902;2023-03-19T13:09:38;96280.84;;;9.91;100.00
2192;BME280;1102;49.718;11.902;2023-03-19T13:12:11;96209.09;;;9.68;100.00
2192;BME280;1102;49.718;11.902;2023-03-19T13:23:02;96257.03;;;10.90;100.00
2192;BME280;1102;49.718;11.902;2023-03-19T13:25:34;96222.66;;;11.27;100.00
2192;BME280;1102;49.718;11.902;2023-03-19T13:28:09;96228.63;;;10.87;100.00
2192;BME280;1102;49.718;11.902;2023-03-19T13:30:37;96232.47;;;11.02;100.00
2192;BME280;1102;49.718;11.902;2023-03-19T13:33:20;96248.34;;;11.26;100.00
2192;BME280;1102;49.718;11.902;2023-03-19T13:35:49;96256.19;;;10.98;100.00
2192;BME280;1102;49.718;11.902;2023-03-19T13:38:19;96269.72;;;11.33;100.00
2192;BME280;1102;49.718;11.902;2023-03-19T13:40:56;96256.72;;;11.16;100.00
2192;BME280;1102;49.718;11.902;2023-03-19T13:46:04;96253.63;;;10.89;100.00
2192;BME280;1102;49.718;11.902;2023-03-19T13:51:05;96252.19;;;10.92;100.00
2192;BME280;1102;49.718;11.902;2023-03-19T13:59:25;96217.00;;;10.67;100.00
2192;BME280;1102;49.718;11.902;2023-03-19T14:01:54;96246.13;;;11.04;100.00
2192;BME280;1102;49.718;11.902;2023-03-19T14:04:22;96241.59;;;10.92;100.00
2192;BME280;1102;49.718;11.902;2023-03-19T14:06:54;96234.34;;;10.89;100.00
2192;BME280;1102;49.718;11.902;2023-03-19T14:09:32;96221.19;;;12.22;100.00
2192;BME280;1102;49.718;11.902;2023-03-19T14:12:57;96255.56;;;12.93;100.00
2192;BME280;1102;49.718;11.902;2023-03-19T14:15:20;96240.41;;;12.47;100.00
2192;BME280;1102;49.718;11.902;2023-03-19T14:17:56;96249.25;;;12.38;100.00
2192;BME280;1102;49.718;11.902;2023-03-19T14:20:28;96226.19;;;11.83;100.00
2192;BME280;1102;49.718;11.902;2023-03-19T14:33:57;96249.38;;;12.14;100.00
2192;BME280;1102;49.718;11.902;2023-03-19T14:36:25;96237.44;;;12.20;100.00
2192;BME280;1102;49.718;11.902;2023-03-19T14:38:57;96242.44;;;11.69;100.00
2192;BME280;1102;49.718;11.902;2023-03-19T14:41:27;96232.94;;;11.68;100.00
2192;BME280;1102;49.718;11.902;2023-03-19T15:08:21;96219.13;;;11.75;100.00
2192;BME280;1102;49.718;11.902;2023-03-19T15:17:05;96217.47;;;11.18;100.00
2192;BME280;1102;49.718;11.902;2023-03-19T15:19:35;96181.44;;;11.01;100.00
2192;BME280;1102;49.718;11.902;2023-03-19T15:24:36;96195.66;;;10.97;100.00
2192;BME280;1102;49.718;11.902;2023-03-19T15:27:15;96204.66;;;11.20;100.00
2192;BME280;1102;49.718;11.902;2023-03-19T15:29:42;96234.75;;;11.52;100.00
2192;BME280;1102;49.718;11.902;2023-03-19T15:32:09;96204.63;;;11.44;100.00
2192;BME280;1102;49.718;11.902;2023-03-19T15:34:37;96223.25;;;11.60;100.00
2192;BME280;1102;49.718;11.902;2023-03-19T15:37:10;96248.59;;;11.73;100.00